Главная страница
METAR-TAF:

METAR-TAF

Аэропорты :

Såtenäs, Швеция

широта: 58-26N, долгота: 012-42E, высота над уровнем моря: 54 м

Текущие метеонаблюдения

Эта сводка был подготовлена 36 минут назад, в 20:20 UTC
Ветер 2 Узел от северный
Температура 6°C
Влажность 70%
Давление 1036 hPa
Видимость 10 км и более

METAR: ESIB 182020Z AUTO 36002KT 9999 NCD 06/01 Q1036

Время: 22:56 (20:56 UTC)

Прогноз

Эта сводка был подготовлена 16 часа и 6 минут назад, в 04:50 UTC
Прогноз действительный с 18-го 05 UTC до 18-го 10 UTC
Ветер 4 Узел от северо-северо-восточный
Видимость 10 км и более
Нет облачности ниже 1500 м, и нет кучево-дождевой облачности

TAF: ESIB 180450Z 1805/1810 02004KT CAVOK RMK MIL

Метеонаблюдения и прогнозы для более 4000 аэропортов (сводки METAR и TAF).

Имеющиеся станции представлены на карте желтыми и красными точками.

Чтобы увидеть название станции, наведите на нее мышь.

Затем щелкните, чтобы увидеть метеонаблюдения и метеопрогнозы.

Управление картой: чтобы увеличить масштаб, щелкните зеленые кнопки с черным крестиком; чтобы уменьшить масштаб, щелкните зеленую кнопку с тире; для просмотра соседних карт щелкайте зеленые стрелки.


METAR-TAF: